createdAt,value
2019-05-09T00:02:34.608Z,99737.91
2019-05-09T00:05:03.914Z,99737.02
2019-05-09T00:07:33.679Z,99727.56
2019-05-09T00:10:04.047Z,99736.41
2019-05-09T00:12:33.567Z,99745.09
2019-05-09T00:15:04.192Z,99746.72
2019-05-09T00:17:30.280Z,99741.36
2019-05-09T00:20:03.559Z,99742.20
2019-05-09T00:22:33.254Z,99751.00
2019-05-09T00:25:03.178Z,99745.62
2019-05-09T00:27:30.389Z,99745.62
2019-05-09T00:29:59.668Z,99746.85
2019-05-09T00:32:34.806Z,99739.08
2019-05-09T00:35:13.984Z,99744.61
2019-05-09T00:38:13.276Z,99745.09
2019-05-09T00:40:53.059Z,99746.11
2019-05-09T00:43:10.205Z,99746.25
2019-05-09T00:46:03.820Z,99744.08
2019-05-09T00:48:35.201Z,99750.39
2019-05-09T00:51:04.394Z,99750.39
2019-05-09T00:53:34.039Z,99742.25
2019-05-09T00:56:04.099Z,99746.22
2019-05-09T00:58:33.416Z,99750.56
2019-05-09T01:01:04.051Z,99750.19
2019-05-09T01:03:30.610Z,99754.16
2019-05-09T01:05:59.874Z,99763.95
2019-05-09T01:08:29.075Z,99759.99
2019-05-09T01:11:09.369Z,99763.05
2019-05-09T01:13:27.924Z,99761.48
2019-05-09T01:15:57.142Z,99761.48
2019-05-09T01:18:26.397Z,99752.94
2019-05-09T01:20:55.632Z,99762.03
2019-05-09T01:23:24.847Z,99765.92
2019-05-09T01:25:54.074Z,99763.92
2019-05-09T01:28:23.351Z,99763.92
2019-05-09T01:30:53.281Z,99763.52
2019-05-09T01:33:43.933Z,99774.64
2019-05-09T01:36:11.665Z,99772.41
2019-05-09T01:38:43.127Z,99774.27
2019-05-09T01:41:26.284Z,99775.22
2019-05-09T01:43:39.446Z,99783.53
2019-05-09T01:46:08.668Z,99778.23
2019-05-09T01:48:37.918Z,99785.80
2019-05-09T01:51:07.164Z,99783.70
2019-05-09T01:53:38.121Z,99783.70
2019-05-09T01:56:07.359Z,99787.66
2019-05-09T01:58:36.631Z,99779.59
2019-05-09T02:01:06.255Z,99779.59
2019-05-09T02:03:35.516Z,99784.71
2019-05-09T02:06:04.841Z,99782.54
2019-05-09T02:08:34.610Z,99777.41
2019-05-09T02:11:03.965Z,99778.57
2019-05-09T02:13:33.883Z,99778.57
2019-05-09T02:16:10.118Z,99783.39
2019-05-09T02:18:44.079Z,99783.39
2019-05-09T02:21:14.534Z,99779.96
2019-05-09T02:23:43.192Z,99782.91
2019-05-09T02:26:13.374Z,99782.54
2019-05-09T02:28:40.335Z,99773.45
2019-05-09T02:31:09.529Z,99770.97
2019-05-09T02:33:38.802Z,99770.97
2019-05-09T02:36:09.755Z,99768.62
2019-05-09T02:38:39.251Z,99768.62
2019-05-09T02:41:08.564Z,99769.08
2019-05-09T02:43:38.680Z,99767.98
2019-05-09T02:46:19.462Z,99772.60
2019-05-09T02:48:49.673Z,99762.87
2019-05-09T02:51:18.721Z,99762.87
2019-05-09T02:53:48.566Z,99760.83
2019-05-09T02:56:18.774Z,99767.07
2019-05-09T02:59:19.719Z,99768.09
2019-05-09T03:02:02.614Z,99772.90
2019-05-09T03:04:31.860Z,99779.52
2019-05-09T03:07:01.115Z,99781.47
2019-05-09T03:09:30.340Z,99774.72
2019-05-09T03:12:20.500Z,99774.72
2019-05-09T03:14:28.948Z,99788.63
2019-05-09T03:16:58.889Z,99793.54
2019-05-09T03:19:29.696Z,99798.05
2019-05-09T03:21:59.782Z,99796.72
2019-05-09T03:24:29.151Z,99797.57
2019-05-09T03:27:01.277Z,99799.37
2019-05-09T03:29:33.941Z,99798.99
2019-05-09T03:32:03.148Z,99806.45
2019-05-09T03:34:32.428Z,99802.11
2019-05-09T03:37:01.744Z,99805.44
2019-05-09T03:39:31.008Z,99801.95
2019-05-09T03:42:00.380Z,99812.12
2019-05-09T03:44:29.693Z,99808.72
2019-05-09T03:47:29.972Z,99808.72
2019-05-09T03:50:09.882Z,99801.87
2019-05-09T03:52:39.129Z,99801.87
2019-05-09T03:55:08.452Z,99814.55
2019-05-09T03:57:39.032Z,99818.98
2019-05-09T04:00:08.246Z,99817.26
2019-05-09T04:02:38.365Z,99807.85
2019-05-09T04:05:08.121Z,99821.92
2019-05-09T04:07:38.012Z,99821.92
2019-05-09T04:10:07.679Z,99820.32
2019-05-09T04:12:34.750Z,99830.02
2019-05-09T04:15:04.456Z,99832.03
2019-05-09T04:17:43.644Z,99841.86
2019-05-09T04:20:13.766Z,99841.86
2019-05-09T04:22:43.026Z,99831.34
2019-05-09T04:25:13.644Z,99831.34
2019-05-09T04:27:43.252Z,99838.80
2019-05-09T04:30:12.471Z,99828.55
2019-05-09T04:32:41.776Z,99840.69
2019-05-09T04:35:11.032Z,99840.06
2019-05-09T04:37:40.274Z,99849.37
2019-05-09T04:40:09.474Z,99849.37
2019-05-09T04:42:43.054Z,99858.79
2019-05-09T04:45:19.807Z,99858.79
2019-05-09T04:47:49.018Z,99862.28
2019-05-09T04:50:23.505Z,99856.30
2019-05-09T04:52:47.607Z,99861.84
2019-05-09T04:55:18.235Z,99861.84
2019-05-09T04:57:46.054Z,99858.66
2019-05-09T05:00:18.404Z,99857.34
2019-05-09T05:02:48.790Z,99863.08
2019-05-09T05:05:18.187Z,99863.08
2019-05-09T05:07:48.042Z,99866.09
2019-05-09T05:10:18.383Z,99859.92
2019-05-09T05:12:45.882Z,99859.92
2019-05-09T05:15:15.104Z,99863.27
2019-05-09T05:17:44.352Z,99857.84
2019-05-09T05:20:15.882Z,99861.55
2019-05-09T05:22:49.198Z,99864.81
2019-05-09T05:25:18.397Z,99861.86
2019-05-09T05:27:47.746Z,99858.02
2019-05-09T05:30:17.947Z,99866.16
2019-05-09T05:32:51.273Z,99872.47
2019-05-09T05:35:37.603Z,99865.51
2019-05-09T05:38:04.917Z,99860.47
2019-05-09T05:40:34.201Z,99863.81
2019-05-09T05:43:03.516Z,99873.38
2019-05-09T05:45:37.402Z,99874.47
2019-05-09T05:48:09.196Z,99869.66
2019-05-09T05:50:38.856Z,99874.75
2019-05-09T05:53:08.136Z,99874.45
2019-05-09T05:55:38.027Z,99880.28
2019-05-09T05:58:08.605Z,99881.13
2019-05-09T06:00:37.728Z,99882.13
2019-05-09T06:03:05.326Z,99884.09
2019-05-09T06:05:34.510Z,99883.07
2019-05-09T06:08:03.767Z,99883.00
2019-05-09T06:10:32.962Z,99886.73
2019-05-09T06:13:02.198Z,99891.11
2019-05-09T06:15:31.495Z,99888.25
2019-05-09T06:18:00.732Z,99794.93
2019-05-09T06:20:30.003Z,99885.34
2019-05-09T06:22:59.211Z,99892.57
2019-05-09T06:25:30.633Z,99897.64
2019-05-09T06:27:58.411Z,99898.06
2019-05-09T06:30:28.260Z,99900.27
2019-05-09T06:32:59.272Z,99904.27
2019-05-09T06:35:32.728Z,99905.52
2019-05-09T06:38:02.234Z,99905.22
2019-05-09T06:40:31.628Z,99902.92
2019-05-09T06:43:15.388Z,99910.45
2019-05-09T06:46:22.113Z,99905.47
2019-05-09T06:48:51.365Z,99905.89
2019-05-09T06:51:21.443Z,99909.37
2019-05-09T06:53:49.966Z,99908.42
2019-05-09T06:56:19.232Z,99920.94
2019-05-09T06:58:48.434Z,99916.55
2019-05-09T07:01:37.601Z,99927.16
2019-05-09T07:04:12.190Z,99928.23
2019-05-09T07:06:45.480Z,99927.94
2019-05-09T07:09:18.538Z,99925.95
2019-05-09T07:11:48.599Z,99929.08
2019-05-09T07:14:38.211Z,99922.27
2019-05-09T07:17:03.282Z,99922.38
2019-05-09T07:19:33.073Z,99932.81
2019-05-09T07:22:21.183Z,99924.19
2019-05-09T07:25:05.982Z,99927.66
2019-05-09T07:27:28.824Z,99920.17
2019-05-09T07:29:58.809Z,99924.33
2019-05-09T07:32:28.376Z,99921.20
2019-05-09T07:35:00.922Z,99923.45
2019-05-09T07:37:30.186Z,99921.88
2019-05-09T07:40:00.044Z,99919.45
2019-05-09T07:42:29.816Z,99922.39
2019-05-09T07:44:59.363Z,99928.06
2019-05-09T07:47:28.352Z,99925.25
2019-05-09T07:49:58.515Z,99926.44
2019-05-09T07:52:28.402Z,99927.93
2019-05-09T07:54:58.061Z,99932.11
2019-05-09T07:57:25.208Z,99929.62
2019-05-09T07:59:54.444Z,99928.69
2019-05-09T08:02:23.740Z,99931.30
2019-05-09T08:04:52.990Z,99937.44
2019-05-09T08:07:22.208Z,99932.52
2019-05-09T08:09:51.440Z,99935.33
2019-05-09T08:12:20.674Z,99938.17
2019-05-09T08:15:07.499Z,99935.51
2019-05-09T08:17:19.081Z,99935.73
2019-05-09T08:19:48.611Z,99941.41
2019-05-09T08:22:24.930Z,99933.19
2019-05-09T08:24:48.331Z,99937.39
2019-05-09T08:27:17.497Z,99932.53
2019-05-09T08:29:47.695Z,99936.84
2019-05-09T08:32:14.598Z,99945.55
2019-05-09T08:34:43.879Z,99942.29
2019-05-09T08:37:13.113Z,99939.84
2019-05-09T08:39:42.323Z,99942.32
2019-05-09T08:42:11.550Z,99939.27
2019-05-09T08:44:42.161Z,99933.48
2019-05-09T08:47:10.110Z,99940.20
2019-05-09T08:49:54.306Z,99926.45
2019-05-09T08:52:23.538Z,99929.22
2019-05-09T08:54:57.674Z,99925.09
2019-05-09T08:57:24.692Z,99932.44
2019-05-09T08:59:53.891Z,99935.11
2019-05-09T09:02:23.136Z,99930.30
2019-05-09T09:04:52.394Z,99932.96
2019-05-09T09:07:21.606Z,99938.98
2019-05-09T09:09:50.852Z,99937.95
2019-05-09T09:12:30.291Z,99932.03
2019-05-09T09:14:53.292Z,99933.03
2019-05-09T09:17:22.543Z,99925.98
2019-05-09T09:19:51.780Z,99938.88
2019-05-09T09:22:21.042Z,99935.45
2019-05-09T09:24:50.245Z,99927.25
2019-05-09T09:27:19.559Z,99924.50
2019-05-09T09:29:48.782Z,99932.44
2019-05-09T09:32:18.922Z,99926.31
2019-05-09T09:34:48.482Z,99933.97
2019-05-09T09:37:18.499Z,99930.81
2019-05-09T09:39:48.576Z,99933.59
2019-05-09T09:42:15.201Z,99931.80
2019-05-09T09:44:44.510Z,99930.11
2019-05-09T09:47:19.515Z,99930.47
2019-05-09T09:49:43.008Z,99927.39
2019-05-09T09:52:12.254Z,99938.40
2019-05-09T09:54:41.486Z,99923.23
2019-05-09T09:57:10.748Z,99916.31
2019-05-09T10:00:07.423Z,99921.02
2019-05-09T10:02:37.862Z,99917.30
2019-05-09T10:05:07.705Z,99924.10
2019-05-09T10:07:35.127Z,99921.27
2019-05-09T10:10:07.723Z,99923.99
2019-05-09T10:12:34.497Z,99927.39
2019-05-09T10:15:31.538Z,99935.38
2019-05-09T10:18:18.570Z,99936.12
2019-05-09T10:21:01.440Z,99935.46
2019-05-09T10:24:18.626Z,99931.09
2019-05-09T10:27:08.763Z,99934.58
2019-05-09T10:29:35.779Z,99932.74
2019-05-09T10:32:15.099Z,99932.12
2019-05-09T10:34:44.544Z,99929.45
2019-05-09T10:37:13.800Z,99921.02
2019-05-09T10:39:43.104Z,99926.52
2019-05-09T10:42:20.802Z,99923.16
2019-05-09T10:44:55.673Z,99920.73
2019-05-09T10:47:27.927Z,99918.55
2019-05-09T10:49:58.158Z,99919.98
2019-05-09T10:52:28.320Z,99918.52
2019-05-09T10:54:57.846Z,99924.02
2019-05-09T10:57:24.865Z,99915.39
2019-05-09T10:59:54.078Z,99918.44
2019-05-09T11:02:23.304Z,99921.58
2019-05-09T11:04:52.590Z,99920.02
2019-05-09T11:07:21.813Z,99924.39
2019-05-09T11:09:51.072Z,99921.16
2019-05-09T11:12:20.298Z,99907.58
2019-05-09T11:14:49.575Z,99916.75
2019-05-09T11:17:21.807Z,99911.67
2019-05-09T11:19:48.385Z,99912.30
2019-05-09T11:22:18.336Z,99909.86
2019-05-09T11:24:50.924Z,99904.91
2019-05-09T11:27:15.718Z,99905.62
2019-05-09T11:29:47.475Z,99910.33
2019-05-09T11:32:14.538Z,99911.83
2019-05-09T11:34:43.895Z,99922.44
2019-05-09T11:37:13.103Z,99916.98
2019-05-09T11:39:42.434Z,99915.72
2019-05-09T11:42:11.515Z,99915.03
2019-05-09T11:44:40.715Z,99907.63
2019-05-09T11:47:27.614Z,99909.98
2019-05-09T11:49:39.359Z,99907.59
2019-05-09T11:52:08.558Z,99920.80
2019-05-09T11:54:38.875Z,99916.36
2019-05-09T11:57:07.616Z,99917.14
2019-05-09T11:59:37.957Z,99921.18
2019-05-09T12:02:05.602Z,99910.84
2019-05-09T12:04:34.856Z,99909.94
2019-05-09T12:07:04.152Z,99904.61
2019-05-09T12:09:33.350Z,99907.97
2019-05-09T12:12:02.579Z,99906.11
2019-05-09T12:14:31.764Z,99900.14
2019-05-09T12:17:01.234Z,99900.64
2019-05-09T12:19:30.478Z,99902.67
2019-05-09T12:21:59.924Z,99894.65
2019-05-09T12:24:29.716Z,99902.16
2019-05-09T12:27:02.207Z,99908.73
2019-05-09T12:29:28.757Z,99913.75
2019-05-09T12:31:56.991Z,99897.55
2019-05-09T12:34:27.661Z,99907.42
2019-05-09T12:36:58.392Z,99892.81
2019-05-09T12:39:24.692Z,99904.77
2019-05-09T12:41:53.876Z,99906.42
2019-05-09T12:44:25.187Z,99904.89
2019-05-09T12:46:52.413Z,99896.28
2019-05-09T12:49:21.632Z,99897.97
2019-05-09T12:51:50.877Z,99899.17
2019-05-09T12:54:20.097Z,99907.91
2019-05-09T12:56:49.384Z,99901.99
2019-05-09T12:59:18.961Z,99907.89
2019-05-09T13:01:49.164Z,99901.86
2019-05-09T13:04:17.054Z,99901.75
2019-05-09T13:06:48.575Z,99904.19
2019-05-09T13:09:17.819Z,99910.84
2019-05-09T13:11:44.887Z,99901.20
2019-05-09T13:14:14.158Z,99909.27
2019-05-09T13:17:09.440Z,99912.56
2019-05-09T13:19:44.761Z,99906.88
2019-05-09T13:22:14.040Z,99896.31
2019-05-09T13:24:43.292Z,99892.70
2019-05-09T13:27:12.564Z,99900.01
2019-05-09T13:29:41.814Z,99764.72
2019-05-09T13:32:11.087Z,99906.45
2019-05-09T13:34:40.336Z,99902.08
2019-05-09T13:37:09.588Z,99915.82
2019-05-09T13:39:41.206Z,99911.44
2019-05-09T13:42:09.712Z,99915.23
2019-05-09T13:44:41.489Z,99915.31
2019-05-09T13:47:10.949Z,99915.17
2019-05-09T13:49:39.477Z,99918.95
2019-05-09T13:52:09.911Z,99919.58
2019-05-09T13:54:38.100Z,99918.80
2019-05-09T13:57:05.246Z,99913.80
2019-05-09T13:59:34.444Z,99920.21
2019-05-09T14:02:04.350Z,99922.80
2019-05-09T14:04:33.903Z,99914.47
2019-05-09T14:07:03.098Z,99920.39
2019-05-09T14:09:32.329Z,99918.97
2019-05-09T14:12:01.584Z,99906.19
2019-05-09T14:14:30.817Z,99917.44
2019-05-09T14:17:00.079Z,99913.50
2019-05-09T14:19:40.554Z,99911.81
2019-05-09T14:21:58.928Z,99915.88
2019-05-09T14:24:28.649Z,99927.48
2019-05-09T14:26:58.328Z,99918.45
2019-05-09T14:29:31.671Z,99917.83
2019-05-09T14:31:56.716Z,99918.73
2019-05-09T14:34:26.024Z,99936.13
2019-05-09T14:36:55.287Z,99920.77
2019-05-09T14:39:24.532Z,99915.97
2019-05-09T14:41:53.790Z,99916.98
2019-05-09T14:44:23.032Z,99915.52
2019-05-09T14:46:52.264Z,99915.80
2019-05-09T14:49:21.483Z,99909.03
2019-05-09T14:51:50.803Z,99921.08
2019-05-09T14:54:20.114Z,99923.64
2019-05-09T14:56:49.386Z,99924.03
2019-05-09T14:59:18.849Z,99923.23
2019-05-09T15:01:49.625Z,99918.71
2019-05-09T15:04:18.896Z,99920.27
2019-05-09T15:06:48.628Z,99921.33
2019-05-09T15:09:18.025Z,99918.80
2019-05-09T15:11:44.952Z,99924.08
2019-05-09T15:14:14.205Z,99926.37
2019-05-09T15:16:43.447Z,99926.95
2019-05-09T15:19:12.727Z,99924.13
2019-05-09T15:21:41.999Z,99927.95
2019-05-09T15:24:11.262Z,99933.84
2019-05-09T15:26:40.517Z,99935.01
2019-05-09T15:29:09.846Z,99936.86
2019-05-09T15:31:39.457Z,99946.31
2019-05-09T15:34:10.205Z,99940.62
2019-05-09T15:36:38.046Z,99942.08
2019-05-09T15:39:08.104Z,99940.39
2019-05-09T15:41:38.524Z,99953.67
2019-05-09T15:44:08.233Z,99952.59
2019-05-09T15:46:39.070Z,99955.28
2019-05-09T15:49:08.331Z,99955.56
2019-05-09T15:51:38.596Z,99956.09
2019-05-09T15:54:08.300Z,99958.44
2019-05-09T15:56:38.313Z,99960.25
2019-05-09T15:59:05.371Z,99966.00
2019-05-09T16:01:34.728Z,99962.58
2019-05-09T16:04:04.116Z,99963.17
2019-05-09T16:06:33.536Z,99961.70
2019-05-09T16:09:02.992Z,99961.95
2019-05-09T16:11:32.347Z,99962.20
2019-05-09T16:14:03.216Z,99962.45
2019-05-09T16:16:31.053Z,99971.56
2019-05-09T16:19:00.334Z,99965.86
2019-05-09T16:21:29.545Z,99966.67
2019-05-09T16:23:59.424Z,99960.81
2019-05-09T16:26:29.074Z,99962.37
2019-05-09T16:28:58.149Z,99975.09
2019-05-09T16:31:27.906Z,99971.20
2019-05-09T16:33:58.097Z,99972.64
2019-05-09T16:36:25.148Z,99975.44
2019-05-09T16:38:54.428Z,99975.67
2019-05-09T16:41:23.765Z,99977.48
2019-05-09T16:43:53.038Z,99974.49
2019-05-09T16:46:22.275Z,99975.23
2019-05-09T16:48:51.543Z,99978.50
2019-05-09T16:51:20.864Z,99982.75
2019-05-09T16:53:50.231Z,99980.42
2019-05-09T16:56:19.559Z,99975.23
2019-05-09T16:58:48.855Z,99976.41
2019-05-09T17:01:18.751Z,99982.00
2019-05-09T17:03:47.381Z,99983.51
2019-05-09T17:06:18.405Z,99983.25
2019-05-09T17:08:47.543Z,99983.49
2019-05-09T17:11:15.215Z,99988.07
2019-05-09T17:13:44.567Z,99985.38
2019-05-09T17:16:13.871Z,99985.85
2019-05-09T17:18:43.114Z,99985.90
2019-05-09T17:21:30.294Z,99990.95
2019-05-09T17:23:59.800Z,99994.34
2019-05-09T17:26:29.195Z,99993.34
2019-05-09T17:28:58.571Z,100006.59
2019-05-09T17:31:27.861Z,100000.54
2019-05-09T17:33:57.932Z,100000.61
2019-05-09T17:36:28.551Z,100000.94
2019-05-09T17:38:55.889Z,100005.05
2019-05-09T17:41:25.137Z,99994.63
2019-05-09T17:43:54.411Z,100004.23
2019-05-09T17:46:24.526Z,100007.09
2019-05-09T17:48:53.022Z,99999.48
2019-05-09T17:51:32.968Z,100006.80
2019-05-09T17:53:52.260Z,100010.33
2019-05-09T17:56:20.996Z,100005.38
2019-05-09T17:58:50.311Z,100009.11
2019-05-09T18:01:19.620Z,100008.42
2019-05-09T18:03:48.978Z,100016.26
2019-05-09T18:06:19.126Z,100025.86
2019-05-09T18:08:48.470Z,100026.53
2019-05-09T18:11:17.421Z,100031.41
2019-05-09T18:13:48.064Z,100025.06
2019-05-09T18:16:15.497Z,100030.89
2019-05-09T18:18:44.706Z,100035.22
2019-05-09T18:21:13.933Z,100036.38
2019-05-09T18:23:43.155Z,100038.27
2019-05-09T18:26:12.401Z,100043.84
2019-05-09T18:28:41.643Z,100039.72
2019-05-09T18:31:10.908Z,100045.28
2019-05-09T18:33:47.596Z,100041.48
2019-05-09T18:36:15.141Z,100042.99
2019-05-09T18:38:44.327Z,100054.42
2019-05-09T18:41:13.607Z,100047.70
2019-05-09T18:43:42.818Z,100046.10
2019-05-09T18:46:12.039Z,100053.20
2019-05-09T18:48:41.261Z,100049.52
2019-05-09T18:51:10.499Z,100053.16
2019-05-09T18:53:39.781Z,100052.98
2019-05-09T18:56:09.037Z,100060.38
2019-05-09T18:58:38.320Z,100058.88
2019-05-09T19:01:07.545Z,100061.39
2019-05-09T19:03:36.782Z,100065.61
2019-05-09T19:06:05.976Z,100068.09
2019-05-09T19:08:35.187Z,100068.88
2019-05-09T19:11:04.463Z,100074.42
2019-05-09T19:13:33.735Z,100073.78
2019-05-09T19:16:18.635Z,100079.41
2019-05-09T19:19:09.797Z,100081.25
2019-05-09T19:21:48.173Z,100079.58
2019-05-09T19:24:17.399Z,100088.83
2019-05-09T19:26:46.601Z,100094.57
2019-05-09T19:29:15.825Z,100093.38
2019-05-09T19:31:45.076Z,100102.62
2019-05-09T19:34:14.332Z,100105.01
2019-05-09T19:36:43.653Z,100105.53
2019-05-09T19:39:12.933Z,100110.17
2019-05-09T19:41:42.173Z,100103.55
2019-05-09T19:44:11.414Z,100105.17
2019-05-09T19:46:40.689Z,100102.06
2019-05-09T19:49:09.901Z,100113.83
2019-05-09T19:51:39.106Z,100121.65
2019-05-09T19:54:08.325Z,100121.89
2019-05-09T19:56:37.572Z,100124.55
2019-05-09T19:59:07.917Z,100123.13
2019-05-09T20:01:36.243Z,100127.61
2019-05-09T20:04:05.513Z,100123.42
2019-05-09T20:06:34.735Z,100127.03
2019-05-09T20:09:06.055Z,100133.40
2019-05-09T20:11:54.373Z,100130.34
2019-05-09T20:14:29.711Z,100140.31
2019-05-09T20:16:58.977Z,100140.89
2019-05-09T20:19:28.197Z,100144.95
2019-05-09T20:21:57.483Z,100148.66
2019-05-09T20:24:26.771Z,100157.03
2019-05-09T20:26:56.000Z,100161.95
2019-05-09T20:29:25.267Z,100164.03
2019-05-09T20:31:54.522Z,100166.50
2019-05-09T20:34:23.752Z,100175.59
2019-05-09T20:36:53.052Z,100170.09
2019-05-09T20:39:22.300Z,100180.06
2019-05-09T20:41:51.568Z,100179.17
2019-05-09T20:44:20.781Z,100178.03
2019-05-09T20:46:50.080Z,100178.77
2019-05-09T20:49:19.331Z,100183.90
2019-05-09T20:51:48.563Z,100189.95
2019-05-09T20:54:20.902Z,100186.63
2019-05-09T20:56:47.141Z,100189.46
2019-05-09T20:59:16.652Z,100185.44
2019-05-09T21:01:45.831Z,100203.54
2019-05-09T21:04:15.083Z,100197.41
2019-05-09T21:06:44.320Z,100197.41
2019-05-09T21:09:13.527Z,100198.53
2019-05-09T21:11:42.759Z,100201.38
2019-05-09T21:14:12.243Z,100205.12
2019-05-09T21:16:41.464Z,100205.84
2019-05-09T21:19:10.718Z,100201.41
2019-05-09T21:21:39.949Z,100206.27
2019-05-09T21:24:09.267Z,100216.41
2019-05-09T21:26:38.505Z,100216.41
2019-05-09T21:29:07.733Z,100219.72
2019-05-09T21:31:36.962Z,100219.72
2019-05-09T21:34:06.177Z,100215.12
2019-05-09T21:36:35.401Z,100215.12
2019-05-09T21:39:06.223Z,100207.41
2019-05-09T21:41:35.444Z,100222.61
2019-05-09T21:44:04.826Z,100226.13
2019-05-09T21:46:34.047Z,100224.90
2019-05-09T21:49:03.340Z,100235.11
2019-05-09T21:51:32.556Z,100233.78
2019-05-09T21:54:01.767Z,100229.49
2019-05-09T21:56:30.998Z,100227.31
2019-05-09T21:59:00.227Z,100240.66
2019-05-09T22:01:29.571Z,100240.66
2019-05-09T22:03:58.851Z,100234.06
2019-05-09T22:06:28.131Z,100235.18
2019-05-09T22:08:57.429Z,100235.18
2019-05-09T22:11:26.685Z,100239.06
2019-05-09T22:13:55.962Z,100243.31
2019-05-09T22:16:25.264Z,100243.31
2019-05-09T22:18:54.535Z,100250.19
2019-05-09T22:21:23.737Z,100245.05
2019-05-09T22:23:57.188Z,100256.20
2019-05-09T22:26:22.205Z,100251.91
2019-05-09T22:28:51.480Z,100257.86
2019-05-09T22:31:20.689Z,100257.86
2019-05-09T22:33:49.949Z,100257.62
2019-05-09T22:36:19.201Z,100267.00
2019-05-09T22:38:48.508Z,100260.60
2019-05-09T22:41:17.721Z,100262.56
2019-05-09T22:43:47.021Z,100260.41
2019-05-09T22:46:16.269Z,100260.41
2019-05-09T22:48:45.547Z,100272.09
2019-05-09T22:51:14.873Z,100272.09
2019-05-09T22:53:44.093Z,100280.44
2019-05-09T22:56:13.336Z,100274.45
2019-05-09T22:58:42.557Z,100271.42
2019-05-09T23:01:11.910Z,100269.91
2019-05-09T23:03:41.116Z,100269.91
2019-05-09T23:06:10.328Z,100273.88
2019-05-09T23:08:39.596Z,100274.98
2019-05-09T23:11:08.875Z,100276.78
2019-05-09T23:13:53.352Z,100267.89
2019-05-09T23:16:23.251Z,100276.00
2019-05-09T23:18:52.600Z,100271.92
2019-05-09T23:21:22.018Z,100279.11
2019-05-09T23:24:10.357Z,100276.36
2019-05-09T23:26:39.568Z,100273.87
2019-05-09T23:29:08.840Z,100273.87
2019-05-09T23:31:44.530Z,100271.37
2019-05-09T23:34:13.837Z,100263.41
2019-05-09T23:36:43.085Z,100266.50
2019-05-09T23:39:25.444Z,100270.52
2019-05-09T23:41:54.701Z,100270.52
2019-05-09T23:44:23.927Z,100278.67
2019-05-09T23:46:53.224Z,100267.44
2019-05-09T23:49:22.473Z,100267.44
2019-05-09T23:51:51.880Z,100275.63
2019-05-09T23:54:47.378Z,100275.63
2019-05-09T23:57:25.938Z,100284.33
